Impacts TAF Board
For situational awareness. Not to be used for flight planning purposes.
IDs:

KHDN - Hayden/Yampa Valley, CO, US

Issued at 1738 UTC 21 May 2022
Updated at 2241 UTC 21 May 2022
Potential Impact None Slight Moderate High
Time2156Z 21/23Z 22/00Z 22/01Z 22/02Z 22/03Z 22/04Z 22/05Z 22/06Z 22/07Z 22/08Z 22/09Z 22/10Z 22/11Z>>
Type OBS PRVL PRVL PRVL PRVL PRVL PRVL PRVL PRVL PRVL PRVL PRVL PRVL PRVL
VIS 10 >6 >6 >6 >6 >6 >6 >6 >6 >6 >6 >6 >6 >6
CIG -- -- -- -- -- -- -- -- -- -- -- -- -- --
Cover FEW SCT SCT SCT SCT SCT SCT SCT SCT SCT SCT SCT SCT SCT
FltCat VFR VFR VFR VFR VFR VFR VFR VFR VFR VFR VFR VFR VFR VFR
WX -- -- -- -- -- -- -- -- -- -- -- -- -- --
WDir VRB 260 300 300 300 300 300 300 110 110 110 110 110 110
WSpd 3 8 8 8 8 8 8 8 6 6 6 6 6 6
WGst -- -- -- -- -- -- -- -- -- -- -- -- -- --
WSHgt -- -- -- -- -- -- -- -- -- -- -- -- -- --
WSDir -- -- -- -- -- -- -- -- -- -- -- -- -- --
WSSpd -- -- -- -- -- -- -- -- -- -- -- -- -- --
Raw TAF
KHDN 211738Z 2118/2218 VRB04KT P6SM FEW060 SCT250
  FM212100 26008KT P6SM FEW060 SCT250
  FM220000 30008KT P6SM FEW060 SCT250
  FM220600 11006KT P6SM SCT250


Raw METAR
KHDN 212156Z AUTO VRB03KT 10SM FEW080 10/M09 A3015 RMK AO2 SLP201 T01001089
KHDN 212056Z AUTO 00000KT 10SM FEW070 09/M10 A3016 RMK AO2 SLP208 T00891100 56005
KHDN 211956Z AUTO 06005KT 10SM SCT070 09/M08 A3017 RMK AO2 SLP209 T00891083

METAR Board
Radar Display
Forecast Discussion
For situational awareness. Not to be used for flight planning purposes.